sensor_id;sensor_type;location;lat;lon;timestamp;noise_LAeq;noise_LA_min;noise_LA_max;noise_LA01;noise_LA95
72686;Laerm;61365;52.162;4.500;2023-02-12T00:01:07;45.49;36.70;60.19;;
72686;Laerm;61365;52.162;4.500;2023-02-12T00:03:35;45.37;37.13;58.36;;
72686;Laerm;61365;52.162;4.500;2023-02-12T00:06:01;45.43;36.97;57.19;;
72686;Laerm;61365;52.162;4.500;2023-02-12T00:08:28;45.48;36.79;59.81;;
72686;Laerm;61365;52.162;4.500;2023-02-12T00:10:55;45.42;36.68;58.19;;
72686;Laerm;61365;52.162;4.500;2023-02-12T00:13:22;45.21;37.34;56.90;;
72686;Laerm;61365;52.162;4.500;2023-02-12T00:15:49;45.44;36.49;58.48;;
72686;Laerm;61365;52.162;4.500;2023-02-12T00:18:15;45.34;36.82;57.84;;
72686;Laerm;61365;52.162;4.500;2023-02-12T00:20:42;45.42;36.76;57.90;;
72686;Laerm;61365;52.162;4.500;2023-02-12T00:23:09;45.64;36.40;59.11;;
72686;Laerm;61365;52.162;4.500;2023-02-12T00:25:41;47.93;36.39;57.73;;
72686;Laerm;61365;52.162;4.500;2023-02-12T00:28:07;46.86;36.20;57.09;;
72686;Laerm;61365;52.162;4.500;2023-02-12T00:30:34;45.66;36.72;57.78;;
72686;Laerm;61365;52.162;4.500;2023-02-12T00:33:01;46.06;36.42;57.91;;
72686;Laerm;61365;52.162;4.500;2023-02-12T00:35:28;45.43;36.42;58.69;;
72686;Laerm;61365;52.162;4.500;2023-02-12T00:37:54;45.40;36.56;58.21;;
72686;Laerm;61365;52.162;4.500;2023-02-12T00:40:20;45.31;36.97;57.79;;
72686;Laerm;61365;52.162;4.500;2023-02-12T00:42:47;45.41;36.44;58.40;;
72686;Laerm;61365;52.162;4.500;2023-02-12T00:45:13;45.36;36.45;57.49;;
72686;Laerm;61365;52.162;4.500;2023-02-12T00:47:39;45.50;37.18;58.53;;
72686;Laerm;61365;52.162;4.500;2023-02-12T00:50:06;45.53;37.09;61.99;;
72686;Laerm;61365;52.162;4.500;2023-02-12T00:52:33;45.41;37.11;57.54;;
72686;Laerm;61365;52.162;4.500;2023-02-12T00:54:59;45.41;37.03;59.33;;
72686;Laerm;61365;52.162;4.500;2023-02-12T00:57:26;45.40;36.89;57.11;;
72686;Laerm;61365;52.162;4.500;2023-02-12T00:59:52;45.39;37.21;57.57;;
72686;Laerm;61365;52.162;4.500;2023-02-12T01:02:18;45.32;36.44;57.37;;
72686;Laerm;61365;52.162;4.500;2023-02-12T01:04:45;45.36;36.73;57.44;;
72686;Laerm;61365;52.162;4.500;2023-02-12T01:07:11;45.51;37.11;57.86;;
72686;Laerm;61365;52.162;4.500;2023-02-12T01:09:37;45.39;36.90;57.39;;
72686;Laerm;61365;52.162;4.500;2023-02-12T01:12:04;45.30;37.00;58.33;;
72686;Laerm;61365;52.162;4.500;2023-02-12T01:14:31;45.45;37.04;57.96;;
72686;Laerm;61365;52.162;4.500;2023-02-12T01:16:57;45.40;37.15;59.49;;
72686;Laerm;61365;52.162;4.500;2023-02-12T01:19:23;45.31;36.41;58.83;;
72686;Laerm;61365;52.162;4.500;2023-02-12T01:21:50;45.39;36.76;58.44;;
72686;Laerm;61365;52.162;4.500;2023-02-12T01:24:16;45.39;37.11;57.45;;
72686;Laerm;61365;52.162;4.500;2023-02-12T01:26:42;45.26;37.13;59.04;;
72686;Laerm;61365;52.162;4.500;2023-02-12T01:29:09;45.35;36.91;57.72;;
72686;Laerm;61365;52.162;4.500;2023-02-12T01:31:38;45.39;37.05;58.22;;
72686;Laerm;61365;52.162;4.500;2023-02-12T01:34:06;45.51;36.98;58.80;;
72686;Laerm;61365;52.162;4.500;2023-02-12T01:36:33;46.66;35.10;59.26;;
72686;Laerm;61365;52.162;4.500;2023-02-12T01:39:00;45.31;36.43;57.58;;
72686;Laerm;61365;52.162;4.500;2023-02-12T01:41:35;45.31;36.97;58.42;;
72686;Laerm;61365;52.162;4.500;2023-02-12T01:44:06;45.51;36.16;63.20;;
72686;Laerm;61365;52.162;4.500;2023-02-12T01:46:34;46.27;36.51;58.07;;
72686;Laerm;61365;52.162;4.500;2023-02-12T01:49:03;46.08;36.38;58.24;;
72686;Laerm;61365;52.162;4.500;2023-02-12T01:51:31;45.47;37.20;58.06;;
72686;Laerm;61365;52.162;4.500;2023-02-12T01:54:05;45.45;37.01;57.87;;
72686;Laerm;61365;52.162;4.500;2023-02-12T01:56:32;45.48;36.81;58.57;;
72686;Laerm;61365;52.162;4.500;2023-02-12T01:58:59;45.44;37.24;58.01;;
72686;Laerm;61365;52.162;4.500;2023-02-12T02:01:29;45.53;37.11;58.63;;
72686;Laerm;61365;52.162;4.500;2023-02-12T02:04:11;45.43;37.26;57.98;;
72686;Laerm;61365;52.162;4.500;2023-02-12T02:06:49;45.50;36.97;59.11;;
72686;Laerm;61365;52.162;4.500;2023-02-12T02:09:18;46.21;36.81;58.96;;
72686;Laerm;61365;52.162;4.500;2023-02-12T02:11:45;45.55;36.84;57.90;;
72686;Laerm;61365;52.162;4.500;2023-02-12T02:14:30;45.49;36.82;58.59;;
72686;Laerm;61365;52.162;4.500;2023-02-12T02:39:24;45.61;36.11;57.77;;
72686;Laerm;61365;52.162;4.500;2023-02-12T02:45:33;45.48;37.05;58.61;;
72686;Laerm;61365;52.162;4.500;2023-02-12T02:48:11;45.50;36.44;58.83;;
72686;Laerm;61365;52.162;4.500;2023-02-12T02:50:46;45.55;37.11;58.97;;
72686;Laerm;61365;52.162;4.500;2023-02-12T02:53:21;45.54;36.82;58.35;;
72686;Laerm;61365;52.162;4.500;2023-02-12T02:55:53;45.44;37.10;58.99;;
72686;Laerm;61365;52.162;4.500;2023-02-12T02:58:38;45.41;36.87;57.84;;
72686;Laerm;61365;52.162;4.500;2023-02-12T03:01:23;45.57;36.43;58.82;;
72686;Laerm;61365;52.162;4.500;2023-02-12T03:04:07;45.49;36.48;59.48;;
72686;Laerm;61365;52.162;4.500;2023-02-12T03:06:53;45.39;36.82;57.69;;
72686;Laerm;61365;52.162;4.500;2023-02-12T03:09:44;45.53;37.18;58.19;;
72686;Laerm;61365;52.162;4.500;2023-02-12T03:12:53;46.61;35.84;57.79;;
72686;Laerm;61365;52.162;4.500;2023-02-12T03:15:37;48.58;35.80;57.49;;
72686;Laerm;61365;52.162;4.500;2023-02-12T03:18:13;48.19;35.89;57.47;;
72686;Laerm;61365;52.162;4.500;2023-02-12T03:20:50;47.15;36.41;56.67;;
72686;Laerm;61365;52.162;4.500;2023-02-12T03:23:25;45.54;37.09;58.97;;
72686;Laerm;61365;52.162;4.500;2023-02-12T03:26:04;45.64;36.76;60.24;;
72686;Laerm;61365;52.162;4.500;2023-02-12T03:28:35;45.56;36.82;58.62;;
72686;Laerm;61365;52.162;4.500;2023-02-12T03:31:20;45.69;37.06;58.88;;
72686;Laerm;61365;52.162;4.500;2023-02-12T03:34:17;45.63;36.60;57.60;;
72686;Laerm;61365;52.162;4.500;2023-02-12T03:39:48;45.65;37.11;60.34;;
72686;Laerm;61365;52.162;4.500;2023-02-12T03:42:31;45.56;36.70;59.06;;
72686;Laerm;61365;52.162;4.500;2023-02-12T03:45:51;45.51;36.97;59.86;;
72686;Laerm;61365;52.162;4.500;2023-02-12T03:48:34;45.53;36.75;58.31;;
72686;Laerm;61365;52.162;4.500;2023-02-12T03:51:31;45.75;36.64;58.22;;
72686;Laerm;61365;52.162;4.500;2023-02-12T03:54:01;45.59;36.50;58.03;;
72686;Laerm;61365;52.162;4.500;2023-02-12T03:56:37;45.65;36.96;58.18;;
72686;Laerm;61365;52.162;4.500;2023-02-12T03:59:06;45.65;37.06;58.24;;
72686;Laerm;61365;52.162;4.500;2023-02-12T04:01:34;45.63;36.83;58.33;;
72686;Laerm;61365;52.162;4.500;2023-02-12T04:04:05;46.53;36.44;58.34;;
72686;Laerm;61365;52.162;4.500;2023-02-12T04:06:32;48.56;35.91;57.57;;
72686;Laerm;61365;52.162;4.500;2023-02-12T04:09:05;45.70;36.84;58.16;;
72686;Laerm;61365;52.162;4.500;2023-02-12T04:37:09;45.63;36.75;58.00;;
72686;Laerm;61365;52.162;4.500;2023-02-12T04:39:41;45.66;36.14;58.07;;
72686;Laerm;61365;52.162;4.500;2023-02-12T04:42:08;45.57;36.97;57.92;;
72686;Laerm;61365;52.162;4.500;2023-02-12T04:44:41;45.60;36.79;59.76;;
72686;Laerm;61365;52.162;4.500;2023-02-12T04:47:14;45.65;36.85;58.03;;
72686;Laerm;61365;52.162;4.500;2023-02-12T04:49:41;45.68;36.96;58.33;;
72686;Laerm;61365;52.162;4.500;2023-02-12T04:52:08;45.52;37.02;57.46;;
72686;Laerm;61365;52.162;4.500;2023-02-12T04:54:35;45.59;36.63;57.13;;
72686;Laerm;61365;52.162;4.500;2023-02-12T04:57:01;45.63;37.12;56.57;;
72686;Laerm;61365;52.162;4.500;2023-02-12T04:59:27;45.79;36.81;59.27;;
72686;Laerm;61365;52.162;4.500;2023-02-12T05:01:54;45.50;37.15;58.70;;
72686;Laerm;61365;52.162;4.500;2023-02-12T05:04:20;45.53;37.04;56.68;;
72686;Laerm;61365;52.162;4.500;2023-02-12T05:06:46;46.85;36.41;58.11;;
72686;Laerm;61365;52.162;4.500;2023-02-12T05:09:17;48.04;36.15;57.27;;
72686;Laerm;61365;52.162;4.500;2023-02-12T05:11:45;47.49;35.86;57.73;;
72686;Laerm;61365;52.162;4.500;2023-02-12T05:14:11;48.04;35.65;57.64;;
72686;Laerm;61365;52.162;4.500;2023-02-12T05:16:38;48.93;35.59;57.38;;
72686;Laerm;61365;52.162;4.500;2023-02-12T05:19:04;47.15;35.89;58.76;;
72686;Laerm;61365;52.162;4.500;2023-02-12T05:21:30;45.76;36.47;58.87;;
72686;Laerm;61365;52.162;4.500;2023-02-12T05:23:57;47.37;35.45;58.77;;
72686;Laerm;61365;52.162;4.500;2023-02-12T05:26:23;49.02;34.99;57.93;;
72686;Laerm;61365;52.162;4.500;2023-02-12T05:28:50;48.65;36.58;58.12;;
72686;Laerm;61365;52.162;4.500;2023-02-12T05:31:19;45.60;35.74;61.25;;
72686;Laerm;61365;52.162;4.500;2023-02-12T05:33:47;45.65;37.13;58.21;;
72686;Laerm;61365;52.162;4.500;2023-02-12T05:36:18;48.77;34.92;56.84;;
72686;Laerm;61365;52.162;4.500;2023-02-12T05:38:45;48.94;36.48;56.55;;
72686;Laerm;61365;52.162;4.500;2023-02-12T05:41:19;48.66;36.49;57.40;;
72686;Laerm;61365;52.162;4.500;2023-02-12T05:43:47;47.81;37.08;58.06;;
72686;Laerm;61365;52.162;4.500;2023-02-12T05:46:14;47.68;36.75;58.22;;
72686;Laerm;61365;52.162;4.500;2023-02-12T05:48:41;47.81;37.13;58.56;;
72686;Laerm;61365;52.162;4.500;2023-02-12T05:51:15;48.43;36.46;61.61;;
72686;Laerm;61365;52.162;4.500;2023-02-12T05:53:42;47.73;37.02;58.98;;
72686;Laerm;61365;52.162;4.500;2023-02-12T05:56:18;48.19;36.03;57.32;;
72686;Laerm;61365;52.162;4.500;2023-02-12T05:58:50;47.84;36.27;57.38;;
72686;Laerm;61365;52.162;4.500;2023-02-12T06:01:25;45.69;36.78;57.90;;
72686;Laerm;61365;52.162;4.500;2023-02-12T06:03:52;45.70;37.30;57.57;;
72686;Laerm;61365;52.162;4.500;2023-02-12T06:06:18;45.60;36.97;57.84;;
72686;Laerm;61365;52.162;4.500;2023-02-12T06:08:49;45.78;37.41;58.09;;
72686;Laerm;61365;52.162;4.500;2023-02-12T06:11:16;45.72;37.04;59.54;;
72686;Laerm;61365;52.162;4.500;2023-02-12T06:13:43;45.67;37.51;57.42;;
72686;Laerm;61365;52.162;4.500;2023-02-12T06:16:23;45.62;36.94;59.38;;
72686;Laerm;61365;52.162;4.500;2023-02-12T06:18:50;45.68;36.93;57.50;;
72686;Laerm;61365;52.162;4.500;2023-02-12T06:21:19;45.75;37.31;58.36;;
72686;Laerm;61365;52.162;4.500;2023-02-12T06:23:47;45.63;36.97;57.89;;
72686;Laerm;61365;52.162;4.500;2023-02-12T06:26:15;45.90;36.74;58.56;;
72686;Laerm;61365;52.162;4.500;2023-02-12T06:28:42;45.71;36.74;57.81;;
72686;Laerm;61365;52.162;4.500;2023-02-12T06:31:26;46.08;36.87;57.93;;
72686;Laerm;61365;52.162;4.500;2023-02-12T06:33:58;45.63;36.72;57.81;;
72686;Laerm;61365;52.162;4.500;2023-02-12T06:36:26;45.71;37.24;58.34;;
72686;Laerm;61365;52.162;4.500;2023-02-12T06:38:52;45.87;37.06;58.99;;
72686;Laerm;61365;52.162;4.500;2023-02-12T06:41:20;45.62;36.78;59.95;;
72686;Laerm;61365;52.162;4.500;2023-02-12T06:43:47;45.66;36.62;57.42;;
72686;Laerm;61365;52.162;4.500;2023-02-12T06:46:15;45.73;36.75;58.55;;
72686;Laerm;61365;52.162;4.500;2023-02-12T06:48:41;45.63;36.47;58.53;;
72686;Laerm;61365;52.162;4.500;2023-02-12T06:51:14;45.70;37.03;58.80;;
72686;Laerm;61365;52.162;4.500;2023-02-12T06:53:41;45.70;37.19;58.12;;
72686;Laerm;61365;52.162;4.500;2023-02-12T06:56:11;45.71;36.74;58.50;;
72686;Laerm;61365;52.162;4.500;2023-02-12T06:58:43;47.93;35.80;57.00;;
72686;Laerm;61365;52.162;4.500;2023-02-12T07:01:20;48.34;35.52;57.51;;
72686;Laerm;61365;52.162;4.500;2023-02-12T07:03:54;47.91;36.89;57.69;;
72686;Laerm;61365;52.162;4.500;2023-02-12T07:06:21;47.90;37.44;57.27;;
72686;Laerm;61365;52.162;4.500;2023-02-12T07:08:48;47.80;36.87;57.69;;
72686;Laerm;61365;52.162;4.500;2023-02-12T07:11:16;47.73;36.54;57.46;;
72686;Laerm;61365;52.162;4.500;2023-02-12T07:13:44;47.87;36.95;57.69;;
72686;Laerm;61365;52.162;4.500;2023-02-12T07:16:14;47.82;36.51;56.94;;
72686;Laerm;61365;52.162;4.500;2023-02-12T07:18:43;47.92;36.60;57.53;;
72686;Laerm;61365;52.162;4.500;2023-02-12T07:21:10;48.05;36.87;59.64;;
72686;Laerm;61365;52.162;4.500;2023-02-12T07:23:38;49.14;36.17;57.15;;
72686;Laerm;61365;52.162;4.500;2023-02-12T07:26:14;47.21;36.70;57.78;;
72686;Laerm;61365;52.162;4.500;2023-02-12T07:28:41;45.74;37.19;59.03;;
72686;Laerm;61365;52.162;4.500;2023-02-12T07:31:15;48.73;36.36;57.80;;
72686;Laerm;61365;52.162;4.500;2023-02-12T07:33:42;47.83;36.68;58.98;;
72686;Laerm;61365;52.162;4.500;2023-02-12T07:36:13;47.64;36.61;59.08;;
72686;Laerm;61365;52.162;4.500;2023-02-12T07:38:40;48.76;35.77;57.01;;
72686;Laerm;61365;52.162;4.500;2023-02-12T07:41:11;47.93;37.31;57.84;;
72686;Laerm;61365;52.162;4.500;2023-02-12T07:43:42;47.75;36.68;57.92;;
72686;Laerm;61365;52.162;4.500;2023-02-12T07:46:13;47.80;37.01;56.99;;
72686;Laerm;61365;52.162;4.500;2023-02-12T07:48:39;47.75;36.53;57.38;;
72686;Laerm;61365;52.162;4.500;2023-02-12T07:51:09;48.83;36.48;57.35;;
72686;Laerm;61365;52.162;4.500;2023-02-12T07:53:37;48.51;35.30;62.93;;
72686;Laerm;61365;52.162;4.500;2023-02-12T07:56:24;48.66;36.42;57.78;;
72686;Laerm;61365;52.162;4.500;2023-02-12T07:58:54;47.56;36.79;60.42;;
72686;Laerm;61365;52.162;4.500;2023-02-12T08:01:34;48.31;36.28;57.09;;
72686;Laerm;61365;52.162;4.500;2023-02-12T08:04:12;48.86;36.06;56.76;;
72686;Laerm;61365;52.162;4.500;2023-02-12T08:06:43;48.33;36.56;57.97;;
72686;Laerm;61365;52.162;4.500;2023-02-12T08:09:13;45.70;37.14;57.49;;
72686;Laerm;61365;52.162;4.500;2023-02-12T08:11:41;45.68;36.93;57.32;;
72686;Laerm;61365;52.162;4.500;2023-02-12T08:14:13;48.23;36.46;57.57;;
72686;Laerm;61365;52.162;4.500;2023-02-12T08:16:41;48.82;35.90;57.93;;
72686;Laerm;61365;52.162;4.500;2023-02-12T08:19:09;46.43;36.55;61.04;;
72686;Laerm;61365;52.162;4.500;2023-02-12T08:21:36;46.49;36.50;57.60;;
72686;Laerm;61365;52.162;4.500;2023-02-12T08:24:02;46.76;36.41;57.99;;
72686;Laerm;61365;52.162;4.500;2023-02-12T08:26:35;45.76;37.01;58.42;;
72686;Laerm;61365;52.162;4.500;2023-02-12T08:29:09;45.79;36.51;58.32;;
72686;Laerm;61365;52.162;4.500;2023-02-12T08:31:40;45.68;37.18;58.08;;
72686;Laerm;61365;52.162;4.500;2023-02-12T08:34:20;45.73;36.93;58.62;;
72686;Laerm;61365;52.162;4.500;2023-02-12T08:36:50;45.83;36.97;58.40;;
72686;Laerm;61365;52.162;4.500;2023-02-12T08:39:17;48.70;35.41;56.65;;
72686;Laerm;61365;52.162;4.500;2023-02-12T08:41:45;48.87;36.48;57.33;;
72686;Laerm;61365;52.162;4.500;2023-02-12T08:44:13;48.99;36.45;57.61;;
72686;Laerm;61365;52.162;4.500;2023-02-12T08:46:45;48.11;36.45;58.80;;
72686;Laerm;61365;52.162;4.500;2023-02-12T08:49:16;47.60;35.81;57.67;;
72686;Laerm;61365;52.162;4.500;2023-02-12T08:51:46;48.62;35.96;57.17;;
72686;Laerm;61365;52.162;4.500;2023-02-12T08:54:20;45.90;36.85;57.96;;
72686;Laerm;61365;52.162;4.500;2023-02-12T08:56:47;45.74;36.69;59.59;;
72686;Laerm;61365;52.162;4.500;2023-02-12T08:59:15;45.69;36.93;57.92;;
72686;Laerm;61365;52.162;4.500;2023-02-12T09:01:43;45.76;37.44;57.94;;
72686;Laerm;61365;52.162;4.500;2023-02-12T09:04:24;45.83;36.30;57.83;;
72686;Laerm;61365;52.162;4.500;2023-02-12T09:06:52;45.64;37.31;57.95;;
72686;Laerm;61365;52.162;4.500;2023-02-12T09:09:20;45.93;36.60;58.47;;
72686;Laerm;61365;52.162;4.500;2023-02-12T09:11:47;45.83;36.66;57.41;;
72686;Laerm;61365;52.162;4.500;2023-02-12T09:14:16;45.85;36.55;60.65;;
72686;Laerm;61365;52.162;4.500;2023-02-12T09:16:43;45.82;36.50;57.47;;
72686;Laerm;61365;52.162;4.500;2023-02-12T09:19:13;45.84;37.19;57.81;;
72686;Laerm;61365;52.162;4.500;2023-02-12T09:21:40;48.20;36.40;57.13;;
72686;Laerm;61365;52.162;4.500;2023-02-12T09:24:07;48.65;36.39;58.09;;
72686;Laerm;61365;52.162;4.500;2023-02-12T09:26:34;47.98;36.86;57.40;;
72686;Laerm;61365;52.162;4.500;2023-02-12T09:29:03;48.73;35.46;58.24;;
72686;Laerm;61365;52.162;4.500;2023-02-12T09:31:31;49.04;36.18;56.87;;
72686;Laerm;61365;52.162;4.500;2023-02-12T09:34:04;49.15;36.36;56.71;;
72686;Laerm;61365;52.162;4.500;2023-02-12T09:36:31;49.18;36.11;58.83;;
72686;Laerm;61365;52.162;4.500;2023-02-12T09:38:58;49.06;36.15;57.74;;
72686;Laerm;61365;52.162;4.500;2023-02-12T09:47:25;47.77;36.84;58.05;;
72686;Laerm;61365;52.162;4.500;2023-02-12T09:50:36;47.90;36.65;62.09;;
72686;Laerm;61365;52.162;4.500;2023-02-12T09:53:14;47.80;35.76;57.27;;
72686;Laerm;61365;52.162;4.500;2023-02-12T09:55:42;48.01;36.73;57.07;;
72686;Laerm;61365;52.162;4.500;2023-02-12T09:58:21;49.08;35.98;57.45;;
72686;Laerm;61365;52.162;4.500;2023-02-12T10:00:49;48.65;36.21;57.91;;
72686;Laerm;61365;52.162;4.500;2023-02-12T10:03:17;45.91;37.20;59.08;;
72686;Laerm;61365;52.162;4.500;2023-02-12T10:06:04;48.01;36.24;57.58;;
72686;Laerm;61365;52.162;4.500;2023-02-12T10:08:40;45.79;37.34;57.52;;
72686;Laerm;61365;52.162;4.500;2023-02-12T10:11:37;45.78;36.69;58.10;;
72686;Laerm;61365;52.162;4.500;2023-02-12T10:14:53;45.91;36.78;58.60;;
72686;Laerm;61365;52.162;4.500;2023-02-12T10:23:42;45.92;36.69;58.15;;
72686;Laerm;61365;52.162;4.500;2023-02-12T10:26:29;47.39;36.84;56.99;;
72686;Laerm;61365;52.162;4.500;2023-02-12T10:29:15;48.94;36.32;57.60;;
72686;Laerm;61365;52.162;4.500;2023-02-12T10:31:54;49.21;35.90;57.19;;
72686;Laerm;61365;52.162;4.500;2023-02-12T10:34:25;49.25;36.54;57.96;;
72686;Laerm;61365;52.162;4.500;2023-02-12T10:37:27;49.02;36.23;57.75;;
72686;Laerm;61365;52.162;4.500;2023-02-12T10:43:04;48.60;36.54;58.50;;
72686;Laerm;61365;52.162;4.500;2023-02-12T10:45:36;47.88;36.90;58.44;;
72686;Laerm;61365;52.162;4.500;2023-02-12T10:53:45;48.77;36.80;57.88;;
72686;Laerm;61365;52.162;4.500;2023-02-12T11:03:47;45.73;36.83;57.77;;
72686;Laerm;61365;52.162;4.500;2023-02-12T11:06:22;45.90;36.81;59.45;;
72686;Laerm;61365;52.162;4.500;2023-02-12T11:08:51;48.04;36.41;59.05;;
72686;Laerm;61365;52.162;4.500;2023-02-12T11:11:36;49.26;36.15;61.85;;
72686;Laerm;61365;52.162;4.500;2023-02-12T11:14:18;49.29;36.05;57.64;;
72686;Laerm;61365;52.162;4.500;2023-02-12T11:16:59;49.23;36.35;57.62;;
72686;Laerm;61365;52.162;4.500;2023-02-12T11:19:30;49.07;36.45;57.93;;
72686;Laerm;61365;52.162;4.500;2023-02-12T11:22:10;49.04;36.13;57.80;;
72686;Laerm;61365;52.162;4.500;2023-02-12T11:24:39;47.79;35.04;60.98;;
72686;Laerm;61365;52.162;4.500;2023-02-12T11:29:45;45.96;36.92;57.60;;
72686;Laerm;61365;52.162;4.500;2023-02-12T11:32:19;45.83;36.79;57.98;;
72686;Laerm;61365;52.162;4.500;2023-02-12T11:35:16;46.55;36.44;58.28;;
72686;Laerm;61365;52.162;4.500;2023-02-12T11:37:53;45.85;37.10;57.61;;
72686;Laerm;61365;52.162;4.500;2023-02-12T11:40:26;46.95;36.36;59.31;;
72686;Laerm;61365;52.162;4.500;2023-02-12T11:42:59;49.22;36.83;57.72;;
72686;Laerm;61365;52.162;4.500;2023-02-12T11:45:34;49.15;36.33;57.45;;
72686;Laerm;61365;52.162;4.500;2023-02-12T11:48:12;49.46;35.77;58.64;;
72686;Laerm;61365;52.162;4.500;2023-02-12T11:50:47;49.38;36.35;57.59;;
72686;Laerm;61365;52.162;4.500;2023-02-12T11:53:23;49.20;35.51;57.49;;
72686;Laerm;61365;52.162;4.500;2023-02-12T11:56:02;48.54;35.98;57.69;;
72686;Laerm;61365;52.162;4.500;2023-02-12T11:58:30;45.86;36.77;57.11;;
72686;Laerm;61365;52.162;4.500;2023-02-12T12:01:21;45.83;35.73;59.31;;
72686;Laerm;61365;52.162;4.500;2023-02-12T12:04:11;45.97;36.99;58.07;;
72686;Laerm;61365;52.162;4.500;2023-02-12T12:09:28;45.98;36.88;57.65;;
72686;Laerm;61365;52.162;4.500;2023-02-12T12:17:52;49.39;36.28;57.82;;
72686;Laerm;61365;52.162;4.500;2023-02-12T12:20:46;49.37;35.77;60.35;;
72686;Laerm;61365;52.162;4.500;2023-02-12T12:23:30;49.41;36.51;57.16;;
72686;Laerm;61365;52.162;4.500;2023-02-12T12:26:12;49.42;35.93;57.68;;
72686;Laerm;61365;52.162;4.500;2023-02-12T12:28:47;48.82;36.56;57.13;;
72686;Laerm;61365;52.162;4.500;2023-02-12T12:33:50;49.34;36.48;60.33;;
72686;Laerm;61365;52.162;4.500;2023-02-12T12:36:46;48.94;36.76;57.21;;
72686;Laerm;61365;52.162;4.500;2023-02-12T12:51:11;49.30;36.28;57.34;;
72686;Laerm;61365;52.162;4.500;2023-02-12T12:56:48;46.30;36.70;57.40;;
72686;Laerm;61365;52.162;4.500;2023-02-12T13:15:07;49.13;35.89;57.50;;
72686;Laerm;61365;52.162;4.500;2023-02-12T13:20:40;47.98;36.92;58.49;;
72686;Laerm;61365;52.162;4.500;2023-02-12T13:23:34;47.96;37.13;56.80;;
72686;Laerm;61365;52.162;4.500;2023-02-12T13:26:16;48.93;36.55;56.91;;
72686;Laerm;61365;52.162;4.500;2023-02-12T13:29:00;48.75;36.45;58.02;;
72686;Laerm;61365;52.162;4.500;2023-02-12T13:31:29;49.37;36.11;57.31;;
72686;Laerm;61365;52.162;4.500;2023-02-12T13:34:03;49.36;36.18;57.38;;
72686;Laerm;61365;52.162;4.500;2023-02-12T13:36:35;49.41;35.32;61.48;;
72686;Laerm;61365;52.162;4.500;2023-02-12T13:39:24;48.41;36.35;57.66;;
72686;Laerm;61365;52.162;4.500;2023-02-12T13:48:43;49.29;36.25;57.45;;
72686;Laerm;61365;52.162;4.500;2023-02-12T13:51:43;48.86;36.42;57.51;;
72686;Laerm;61365;52.162;4.500;2023-02-12T13:54:26;48.76;32.57;63.46;;
72686;Laerm;61365;52.162;4.500;2023-02-12T13:57:00;48.28;36.49;57.26;;
72686;Laerm;61365;52.162;4.500;2023-02-12T13:59:39;46.30;37.04;58.51;;
72686;Laerm;61365;52.162;4.500;2023-02-12T14:07:13;45.91;37.04;58.41;;
72686;Laerm;61365;52.162;4.500;2023-02-12T14:10:06;45.95;36.65;58.09;;
72686;Laerm;61365;52.162;4.500;2023-02-12T14:12:37;45.65;36.55;57.28;;
72686;Laerm;61365;52.162;4.500;2023-02-12T14:15:31;45.88;36.65;58.00;;
72686;Laerm;61365;52.162;4.500;2023-02-12T14:18:23;45.89;36.93;57.98;;
72686;Laerm;61365;52.162;4.500;2023-02-12T14:23:39;45.93;37.40;57.76;;
72686;Laerm;61365;52.162;4.500;2023-02-12T14:26:13;45.94;36.70;59.47;;
72686;Laerm;61365;52.162;4.500;2023-02-12T14:28:57;47.61;35.85;57.41;;
72686;Laerm;61365;52.162;4.500;2023-02-12T14:31:45;47.24;36.15;57.05;;
72686;Laerm;61365;52.162;4.500;2023-02-12T14:36:45;47.98;36.78;57.32;;
72686;Laerm;61365;52.162;4.500;2023-02-12T14:44:47;49.42;35.24;57.31;;
72686;Laerm;61365;52.162;4.500;2023-02-12T14:50:02;47.99;36.21;57.32;;
72686;Laerm;61365;52.162;4.500;2023-02-12T14:52:39;47.99;36.05;62.85;;
72686;Laerm;61365;52.162;4.500;2023-02-12T14:55:34;47.90;36.84;57.98;;
72686;Laerm;61365;52.162;4.500;2023-02-12T14:58:04;48.01;36.19;57.92;;
72686;Laerm;61365;52.162;4.500;2023-02-12T15:00:38;47.97;36.03;57.21;;
72686;Laerm;61365;52.162;4.500;2023-02-12T15:05:58;47.94;37.15;57.90;;
72686;Laerm;61365;52.162;4.500;2023-02-12T15:08:50;49.01;36.33;57.72;;
72686;Laerm;61365;52.162;4.500;2023-02-12T15:11:41;49.05;35.90;57.34;;
72686;Laerm;61365;52.162;4.500;2023-02-12T15:14:21;47.86;36.95;57.10;;
72686;Laerm;61365;52.162;4.500;2023-02-12T15:17:01;47.93;36.79;58.53;;
72686;Laerm;61365;52.162;4.500;2023-02-12T15:22:29;48.97;36.14;57.56;;
72686;Laerm;61365;52.162;4.500;2023-02-12T15:25:22;49.03;33.60;62.26;;
72686;Laerm;61365;52.162;4.500;2023-02-12T15:28:01;45.78;36.35;57.24;;
72686;Laerm;61365;52.162;4.500;2023-02-12T15:30:34;45.89;37.00;58.52;;
72686;Laerm;61365;52.162;4.500;2023-02-12T15:33:06;45.92;37.25;57.76;;
72686;Laerm;61365;52.162;4.500;2023-02-12T15:35:37;48.81;35.47;56.86;;
72686;Laerm;61365;52.162;4.500;2023-02-12T15:38:06;47.94;37.04;57.49;;
72686;Laerm;61365;52.162;4.500;2023-02-12T15:40:33;47.92;36.61;56.95;;
72686;Laerm;61365;52.162;4.500;2023-02-12T15:43:05;47.79;36.22;59.47;;
72686;Laerm;61365;52.162;4.500;2023-02-12T15:45:35;47.83;37.41;57.56;;
72686;Laerm;61365;52.162;4.500;2023-02-12T15:48:12;48.09;35.93;57.41;;
72686;Laerm;61365;52.162;4.500;2023-02-12T15:53:38;49.05;36.60;56.82;;
72686;Laerm;61365;52.162;4.500;2023-02-12T15:56:12;49.21;36.74;57.06;;
72686;Laerm;61365;52.162;4.500;2023-02-12T15:58:50;49.02;35.87;57.80;;
72686;Laerm;61365;52.162;4.500;2023-02-12T16:01:21;49.08;35.88;57.17;;
72686;Laerm;61365;52.162;4.500;2023-02-12T16:03:55;48.35;36.50;57.37;;
72686;Laerm;61365;52.162;4.500;2023-02-12T16:06:24;48.48;36.56;57.25;;
72686;Laerm;61365;52.162;4.500;2023-02-12T16:09:21;48.13;36.47;57.25;;
72686;Laerm;61365;52.162;4.500;2023-02-12T16:11:54;49.02;36.65;58.09;;
72686;Laerm;61365;52.162;4.500;2023-02-12T16:14:35;48.84;36.28;57.15;;
72686;Laerm;61365;52.162;4.500;2023-02-12T16:17:34;49.02;36.32;56.70;;
72686;Laerm;61365;52.162;4.500;2023-02-12T16:22:46;49.01;36.44;57.56;;
72686;Laerm;61365;52.162;4.500;2023-02-12T16:25:17;49.00;36.51;56.58;;
72686;Laerm;61365;52.162;4.500;2023-02-12T16:27:57;49.00;36.55;58.69;;
72686;Laerm;61365;52.162;4.500;2023-02-12T16:32:58;48.02;33.43;62.68;;
72686;Laerm;61365;52.162;4.500;2023-02-12T16:38:47;48.65;36.21;61.28;;
72686;Laerm;61365;52.162;4.500;2023-02-12T16:44:19;47.77;36.87;57.47;;
72686;Laerm;61365;52.162;4.500;2023-02-12T16:46:46;47.64;36.57;57.51;;
72686;Laerm;61365;52.162;4.500;2023-02-12T16:49:19;47.74;36.49;57.91;;
72686;Laerm;61365;52.162;4.500;2023-02-12T16:51:49;48.48;36.22;57.10;;
72686;Laerm;61365;52.162;4.500;2023-02-12T16:54:28;48.66;36.49;56.97;;
72686;Laerm;61365;52.162;4.500;2023-02-12T16:56:56;47.65;36.77;60.07;;
72686;Laerm;61365;52.162;4.500;2023-02-12T16:59:22;47.65;36.53;59.95;;
72686;Laerm;61365;52.162;4.500;2023-02-12T17:02:02;48.32;36.65;57.84;;
72686;Laerm;61365;52.162;4.500;2023-02-12T17:04:30;48.93;36.18;57.47;;
72686;Laerm;61365;52.162;4.500;2023-02-12T17:06:56;48.81;36.25;57.40;;
72686;Laerm;61365;52.162;4.500;2023-02-12T17:09:23;48.90;36.58;56.99;;
72686;Laerm;61365;52.162;4.500;2023-02-12T17:11:49;48.96;36.62;57.43;;
72686;Laerm;61365;52.162;4.500;2023-02-12T17:14:18;48.43;36.99;58.11;;